• Join FlightAware (Why Join?)
  • Login
  • US Flag 
10:31AM EDT


 

Airport Tracker/Info


-or-


 

Live Flight TrackerFlight Track Log ✈ N210KD ✈ 15-Jun-2013 ✈ KGSO - KMGY

Flight Track Log - Related Links

Times and Time Zones

All times are in EDT time to prevent confusion due to time zone crossing. See the N210KD flight status page for this flight to view local times or setup timezone preferences in your user account.

Time Position Orientation Groundspeed Altitude Reporting Facility
EDT Latitude Longitude Course Direction KTS MPH feet Rate Location/Type
01:46PM 36.3065 -80.1774 317° Northwest  Level Estimated
01:47PM 36.3322 -80.2071 317° Northwest  Level Estimated
01:48PM 36.3578 -80.2367 317° Northwest  Level Estimated
01:49PM 36.3834 -80.2664 317° Northwest  Level Estimated
01:50PM 36.4090 -80.2960 317° Northwest  Level Estimated
01:51PM 36.4346 -80.3257 317° Northwest  Level Estimated
01:52PM 36.4601 -80.3555 317° Northwest  Level Estimated
01:53PM 36.4857 -80.3852 317° Northwest  Level Estimated
01:54PM 36.5113 -80.4150 317° Northwest  Level Estimated
01:55PM 36.5368 -80.4447 317° Northwest  Level Estimated
01:56PM 36.5624 -80.4745 317° Northwest  Level Estimated
01:57PM 36.5879 -80.5044 317° Northwest  Level Estimated
01:59PM 36.6919 -80.6394 317° Northwest 152 175 9,400  Level Indianapolis Center
02:00PM 36.7083 -80.6597 315° West 140 161 9,700 480 Climbing Atlanta Center
02:01PM 36.7361 -80.6869 322° Northwest 133 153 10,200 360 Climbing Atlanta Center
02:02PM 36.7600 -80.7169 315° West 138 159 10,500 120 Climbing Atlanta Center
02:03PM 36.7878 -80.7494 317° Northwest 138 159 10,500  Level Atlanta Center
02:04PM 36.8203 -80.7897 315° West 143 165 10,600  Climbing Atlanta Center
02:05PM 36.8547 -80.8325 315° West 149 171 10,500 -60 Descending Atlanta Center
02:06PM 36.8869 -80.8700 317° Northwest 154 177 10,500  Level Atlanta Center
02:07PM 36.9192 -80.9075 317° Northwest 154 177 10,500  Level Atlanta Center
02:08PM 36.9514 -80.9481 315° West 159 183 10,500  Level Atlanta Center
02:09PM 36.9836 -80.9831 319° Northwest 159 183 10,500  Level Atlanta Center
02:10PM 37.0158 -81.0183 319° Northwest 164 189 10,500  Level Atlanta Center
02:11PM 37.0481 -81.0561 317° Northwest 164 189 10,500  Level Atlanta Center
02:12PM 37.0867 -81.0989 319° Northwest 164 189 10,500  Level Atlanta Center
02:14PM 37.1508 -81.1647 321° Northwest 161 185 10,500  Level Indianapolis Center
02:15PM 37.1883 -81.2053 319° Northwest 160 184 10,500  Level Indianapolis Center
02:16PM 37.2225 -81.2439 318° Northwest 164 189 10,500  Level Indianapolis Center
02:17PM 37.2558 -81.2817 318° Northwest 162 186 10,500  Level Indianapolis Center
02:18PM 37.2894 -81.3197 318° Northwest 162 186 10,500  Level Indianapolis Center
02:19PM 37.3206 -81.3561 317° Northwest 162 186 10,500  Level Indianapolis Center
02:20PM 37.3592 -81.4014 317° Northwest 161 185 10,500  Level Indianapolis Center
02:21PM 37.3900 -81.4381 317° Northwest 160 184 10,600  Climbing Indianapolis Center
02:22PM 37.4231 -81.4761 318° Northwest 162 186 10,500 -60 Descending Indianapolis Center
02:23PM 37.4594 -81.5197 316° Northwest 162 186 10,500  Level Indianapolis Center
02:24PM 37.4928 -81.5597 316° Northwest 166 191 10,500  Level Indianapolis Center
02:25PM 37.5250 -81.5981 317° Northwest 162 186 10,600  Climbing Indianapolis Center
02:26PM 37.5583 -81.6381 316° Northwest 165 190 10,500 -60 Descending Indianapolis Center
02:27PM 37.5919 -81.6783 316° Northwest 167 192 10,500  Level Indianapolis Center
02:28PM 37.6286 -81.7242 315° West 161 185 10,600  Climbing Indianapolis Center
02:29PM 37.6619 -81.7644 316° Northwest 166 191 10,600 -60 Level Indianapolis Center
02:30PM 37.6953 -81.8031 317° Northwest 163 188 10,500 -60 Descending Indianapolis Center
02:31PM 37.7278 -81.8439 315° West 164 189 10,500  Level Indianapolis Center
02:32PM 37.7611 -81.8814 318° Northwest 161 185 10,500  Level Indianapolis Center
02:33PM 37.7950 -81.9208 317° Northwest 167 192 10,600  Climbing Indianapolis Center
02:34PM 37.8278 -81.9597 317° Northwest 163 188 10,600  Level Indianapolis Center
02:35PM 37.8675 -82.0044 318° Northwest 163 188 10,600  Level Indianapolis Center
02:36PM 37.9022 -82.0431 319° Northwest 165 190 10,600  Level Indianapolis Center
02:37PM 37.9356 -82.0822 317° Northwest 164 189 10,600  Level Indianapolis Center
02:38PM 37.9689 -82.1214 317° Northwest 164 189 10,600 -60 Level Indianapolis Center
02:39PM 38.0008 -82.1600 316° Northwest 161 185 10,500  Descending Indianapolis Center
02:40PM 38.0336 -82.2006 316° Northwest 163 188 10,600  Climbing Indianapolis Center
02:41PM 38.0719 -82.2478 316° Northwest 163 188 10,500  Descending Indianapolis Center
02:42PM 38.1056 -82.2861 318° Northwest 164 189 10,600  Climbing Indianapolis Center
02:43PM 38.1339 -82.3194 317° Northwest 164 189 10,500  Descending Indianapolis Center
02:45PM 38.1739 -82.3675 317° Northwest 165 190 10,600  Climbing Indianapolis Center
02:46PM 38.2081 -82.4072 318° Northwest 165 190 10,500  Descending Indianapolis Center
02:47PM 38.2411 -82.4458 317° Northwest 163 188 10,600  Climbing Indianapolis Center
02:48PM 38.2744 -82.4858 317° Northwest 164 189 10,500 -60 Descending Indianapolis Center
02:49PM 38.3122 -82.5261 320° Northwest 160 184 10,500  Level Indianapolis Center
02:50PM 38.3461 -82.5647 318° Northwest 161 185 10,600  Climbing Indianapolis Center
02:51PM 38.3797 -82.6017 319° Northwest 160 184 10,500 -60 Descending Indianapolis Center
02:52PM 38.4136 -82.6375 320° Northwest 160 184 10,500  Level Indianapolis Center
02:53PM 38.4469 -82.6756 318° Northwest 160 184 10,600  Climbing Indianapolis Center
02:54PM 38.4792 -82.7119 319° Northwest 156 180 10,500 -60 Descending Indianapolis Center
02:55PM 38.5167 -82.7556 318° Northwest 156 180 10,500  Level Indianapolis Center
02:56PM 38.5486 -82.7928 318° Northwest 156 180 10,500  Level Indianapolis Center
02:57PM 38.5819 -82.8297 319° Northwest 158 182 10,500  Level Indianapolis Center
02:58PM 38.6144 -82.8653 319° Northwest 155 178 10,500  Level Indianapolis Center
02:59PM 38.6475 -82.9025 319° Northwest 155 178 10,500 -60 Level Indianapolis Center
03:00PM 38.6842 -82.9436 319° Northwest 158 182 10,400 -60 Descending Indianapolis Center
03:01PM 38.7161 -82.9808 318° Northwest 155 178 10,400  Level Indianapolis Center
03:02PM 38.7458 -83.0194 315° West 153 176 10,400  Level Indianapolis Center
03:03PM 38.7778 -83.0556 319° Northwest 151 174 10,500  Climbing Indianapolis Center
03:04PM 38.8089 -83.0928 317° Northwest 152 175 10,400 -60 Descending Indianapolis Center
03:05PM 38.8411 -83.1289 319° Northwest 154 177 10,400  Level Indianapolis Center
03:06PM 38.8758 -83.1717 316° Northwest 155 178 10,400  Level Indianapolis Center
03:07PM 38.9061 -83.2100 315° West 151 174 10,400  Level Indianapolis Center
03:08PM 38.9358 -83.2503 313° West 152 175 10,400  Level Indianapolis Center
03:09PM 38.9661 -83.2897 315° West 153 176 10,400 -180 Level Indianapolis Center
03:10PM 38.9978 -83.3294 316° Northwest 157 181 10,100 -360 Descending Indianapolis Center
03:11PM 39.0333 -83.3856 309° West 171 197 9,700 -360 Descending Indianapolis Center
03:12PM 39.0653 -83.4311 312° West 171 197 9,400 -360 Descending Indianapolis Center
03:13PM 39.0994 -83.4744 315° West 172 198 9,000 -360 Descending Indianapolis Center
03:14PM 39.1358 -83.5161 318° Northwest 174 200 8,700 -360 Descending Indianapolis Center
03:15PM 39.1733 -83.5544 322° Northwest 173 199 8,300 -360 Descending Indianapolis Center
03:16PM 39.2128 -83.5911 324° Northwest 172 198 8,000 -300 Descending Indianapolis Center